createdAt,value
2023-01-18T00:00:07.673Z,9.1
2023-01-18T00:05:05.845Z,9
2023-01-18T00:10:04.120Z,8.9
2023-01-18T00:15:02.711Z,8.9
2023-01-18T00:20:01.179Z,9
2023-01-18T00:24:59.616Z,9.2
2023-01-18T00:29:57.784Z,9.1
2023-01-18T00:34:56.298Z,9
2023-01-18T00:39:54.763Z,9.1
2023-01-18T00:44:53.072Z,9
2023-01-18T00:49:51.458Z,9
2023-01-18T00:54:49.942Z,8.9
2023-01-18T00:59:48.521Z,8.8
2023-01-18T01:04:46.822Z,8.8
2023-01-18T01:09:45.227Z,8.9
2023-01-18T01:14:45.842Z,9
2023-01-18T01:19:43.786Z,8.7
2023-01-18T01:24:42.304Z,8.9
2023-01-18T01:29:40.311Z,9
2023-01-18T01:34:38.906Z,9.1
2023-01-18T01:39:37.454Z,9.2
2023-01-18T01:44:35.989Z,9.2
2023-01-18T01:49:34.240Z,9.2
2023-01-18T01:54:32.718Z,9.1
2023-01-18T01:59:31.023Z,9.2
2023-01-18T02:04:29.338Z,9.2
2023-01-18T02:09:27.620Z,9.1
2023-01-18T02:14:26.053Z,9.2
2023-01-18T02:19:24.572Z,9.2
2023-01-18T02:24:23.021Z,9.3
2023-01-18T02:29:21.604Z,9.5
2023-01-18T02:34:20.011Z,9.7
2023-01-18T02:39:18.354Z,9.7
2023-01-18T02:44:16.467Z,9.5
2023-01-18T02:49:14.991Z,9.5
2023-01-18T02:54:13.332Z,9.5
2023-01-18T02:59:11.801Z,9.5
2023-01-18T03:04:10.247Z,9.7
2023-01-18T03:09:08.602Z,9.7
2023-01-18T03:14:06.768Z,9.4
2023-01-18T03:19:05.004Z,9.3
2023-01-18T03:24:03.177Z,8.9
2023-01-18T03:29:01.553Z,9.1
2023-01-18T03:33:59.971Z,9.1
2023-01-18T03:38:58.422Z,9.2
2023-01-18T03:43:56.861Z,9.4
2023-01-18T03:48:55.237Z,9.4
2023-01-18T03:53:53.735Z,9.4
2023-01-18T03:58:50.784Z,9.5
2023-01-18T04:03:49.512Z,9.6
2023-01-18T04:08:47.884Z,9.4
2023-01-18T04:13:46.361Z,9.4
2023-01-18T04:18:44.703Z,9.3
2023-01-18T04:23:43.147Z,9.3
2023-01-18T04:28:41.556Z,9.5
2023-01-18T04:33:40.457Z,9.6
2023-01-18T04:38:38.902Z,9.5
2023-01-18T04:43:36.918Z,9.3
2023-01-18T04:48:35.081Z,9.3
2023-01-18T04:53:33.405Z,9.4
2023-01-18T04:58:31.944Z,9.4
2023-01-18T05:03:30.329Z,9.5
2023-01-18T05:08:28.485Z,9.3
2023-01-18T05:13:27.099Z,9.6
2023-01-18T05:18:25.776Z,9.6
2023-01-18T05:23:24.466Z,9.6
2023-01-18T05:28:23.045Z,9.6
2023-01-18T05:33:21.342Z,9.4
2023-01-18T05:38:20.090Z,9.4
2023-01-18T05:43:18.587Z,9.6
2023-01-18T05:48:17.506Z,9.6
2023-01-18T05:53:16.067Z,9.7
2023-01-18T05:58:13.108Z,9.7
2023-01-18T06:03:11.450Z,9.6
2023-01-18T06:08:09.812Z,9.7
2023-01-18T06:13:08.157Z,9.8
2023-01-18T06:18:06.729Z,10
2023-01-18T06:23:05.397Z,10.5
2023-01-18T06:28:04.191Z,10.9
2023-01-18T06:33:02.783Z,10.9
2023-01-18T06:37:35.988Z,11.2
2023-01-18T06:42:34.409Z,11.1
2023-01-18T06:47:33.345Z,11.1
2023-01-18T06:52:31.875Z,11
2023-01-18T06:57:30.207Z,11
2023-01-18T07:02:28.754Z,11
2023-01-18T07:07:27.410Z,11.1
2023-01-18T07:12:25.981Z,11.3
2023-01-18T07:17:24.668Z,11.8
2023-01-18T07:22:24.085Z,12.6
2023-01-18T07:27:26.530Z,15.8
2023-01-18T07:32:26.120Z,16.4
2023-01-18T07:37:23.363Z,16.4
2023-01-18T07:42:19.929Z,14.4
2023-01-18T07:47:17.513Z,14
2023-01-18T07:52:15.813Z,13.9
2023-01-18T07:57:15.639Z,15.2
2023-01-18T08:02:13.426Z,14.4
2023-01-18T08:07:11.555Z,14.6
2023-01-18T08:12:10.145Z,14.8
2023-01-18T08:17:09.077Z,15
2023-01-18T08:22:07.662Z,15
2023-01-18T08:27:12.077Z,19.7
2023-01-18T08:32:08.247Z,17.6
2023-01-18T08:37:05.039Z,16.5
2023-01-18T08:42:02.759Z,16.1
2023-01-18T08:47:02.607Z,17.1
2023-01-18T08:52:05.369Z,20.2
2023-01-18T08:57:00.397Z,17.3
2023-01-18T09:02:00.976Z,17.9
2023-01-18T09:07:00.210Z,17.5
2023-01-18T09:11:57.407Z,16.8
2023-01-18T09:16:55.140Z,16.3
2023-01-18T09:21:54.063Z,17.9
2023-01-18T09:26:50.668Z,21.9
2023-01-18T09:31:51.398Z,24.6
2023-01-18T09:36:52.903Z,26.2
2023-01-18T09:41:52.587Z,26.8
2023-01-18T09:46:49.081Z,26.3
2023-01-18T09:51:46.673Z,23.2
2023-01-18T09:56:40.378Z,20.8
2023-01-18T10:01:46.064Z,23.3
2023-01-18T10:06:41.620Z,21.1
2023-01-18T10:11:38.774Z,20.4
2023-01-18T10:16:38.256Z,20.4
2023-01-18T10:21:34.757Z,18.9
2023-01-18T10:26:32.386Z,18.5
2023-01-18T10:31:30.586Z,18
2023-01-18T10:36:27.966Z,17.1
2023-01-18T10:41:27.161Z,17.7
2023-01-18T10:46:24.270Z,16.8
2023-01-18T10:51:23.134Z,17.5
2023-01-18T10:56:21.295Z,18.2
2023-01-18T11:01:19.688Z,17.9
2023-01-18T11:06:17.964Z,18
2023-01-18T11:11:18.617Z,19.6
2023-01-18T11:16:16.120Z,18.9
2023-01-18T11:21:13.505Z,18.1
2023-01-18T11:21:30.170Z,18.1
2023-01-18T11:26:25.792Z,18.6
2023-01-18T11:31:24.302Z,18.8
2023-01-18T11:36:22.822Z,18.3
2023-01-18T11:41:21.069Z,18.5
2023-01-18T11:46:20.446Z,19.3
2023-01-18T11:51:19.153Z,18.6
2023-01-18T11:56:16.377Z,17.9
2023-01-18T12:01:14.629Z,17.8
2023-01-18T12:06:13.002Z,17.7
2023-01-18T12:11:10.908Z,17.2
2023-01-18T12:16:09.320Z,16.7
2023-01-18T12:21:07.271Z,16.6
2023-01-18T12:26:12.062Z,16.8
2023-01-18T12:31:03.917Z,16.2
2023-01-18T12:36:02.268Z,16.3
2023-01-18T12:41:00.729Z,16
2023-01-18T12:45:59.517Z,16.4
2023-01-18T12:50:58.377Z,16.3
2023-01-18T12:55:57.342Z,16.8
2023-01-18T13:00:55.745Z,16.6
2023-01-18T13:05:53.688Z,15.9
2023-01-18T13:10:52.165Z,16.2
2023-01-18T13:15:50.649Z,15.9
2023-01-18T13:20:48.569Z,15.7
2023-01-18T13:25:46.939Z,15.7
2023-01-18T13:30:45.414Z,15.5
2023-01-18T13:35:43.982Z,15.2
2023-01-18T13:40:42.910Z,14.6
2023-01-18T13:45:40.858Z,14.3
2023-01-18T13:50:38.986Z,14
2023-01-18T13:55:37.554Z,14
2023-01-18T14:00:35.770Z,14.2
2023-01-18T14:05:34.367Z,14.3
2023-01-18T14:10:32.521Z,13.8
2023-01-18T14:15:30.883Z,13.7
2023-01-18T14:20:29.221Z,13.7
2023-01-18T14:25:27.459Z,13.5
2023-01-18T14:30:27.035Z,13.3
2023-01-18T14:35:25.923Z,13
2023-01-18T14:40:23.201Z,12.8
2023-01-18T14:45:22.200Z,13
2023-01-18T14:50:20.405Z,12.8
2023-01-18T14:55:19.085Z,12.7
2023-01-18T15:00:17.413Z,12.5
2023-01-18T15:05:15.654Z,12.4
2023-01-18T15:10:29.132Z,12.1
2023-01-18T15:15:25.082Z,12.1
2023-01-18T15:20:23.356Z,11.8
2023-01-18T15:25:21.522Z,11.3
2023-01-18T15:30:19.964Z,11.1
2023-01-18T15:35:18.368Z,11.2
2023-01-18T15:40:16.860Z,11.1
2023-01-18T15:45:15.287Z,11.2
2023-01-18T15:50:13.723Z,11.1
2023-01-18T15:55:11.989Z,11.1
2023-01-18T16:00:10.673Z,11.2
2023-01-18T16:05:09.036Z,11.1
2023-01-18T16:10:07.612Z,11
2023-01-18T16:15:05.953Z,10.9
2023-01-18T16:20:04.125Z,10.8
2023-01-18T16:25:02.757Z,11.1
2023-01-18T16:30:01.059Z,11.1
2023-01-18T16:34:59.516Z,11.1
2023-01-18T16:39:58.860Z,10.7
2023-01-18T16:44:57.280Z,10.8
2023-01-18T16:49:55.721Z,10.8
2023-01-18T16:54:53.971Z,10.8
2023-01-18T16:59:52.405Z,10.6
2023-01-18T17:04:50.722Z,10.5
2023-01-18T17:09:49.887Z,10.5
2023-01-18T17:14:47.739Z,10.3
2023-01-18T17:19:46.189Z,10.2
2023-01-18T17:24:44.619Z,10.3
2023-01-18T17:29:43.243Z,10.4
2023-01-18T17:34:41.522Z,10.4
2023-01-18T17:39:44.196Z,10.4
2023-01-18T17:44:38.445Z,10.1
2023-01-18T17:49:36.598Z,10
2023-01-18T17:54:35.152Z,9.9
2023-01-18T17:59:33.915Z,10.2
2023-01-18T18:04:32.542Z,10.4
2023-01-18T18:09:31.277Z,10.3
2023-01-18T18:14:29.356Z,10.2
2023-01-18T18:19:27.541Z,9.9
2023-01-18T18:24:26.260Z,10.3
2023-01-18T18:29:24.857Z,10.1
2023-01-18T18:34:23.076Z,10.1
2023-01-18T18:39:21.630Z,10.1
2023-01-18T18:44:20.248Z,10.3
2023-01-18T18:49:19.099Z,10.3
2023-01-18T18:54:17.565Z,10.2
2023-01-18T18:59:16.023Z,10.3
2023-01-18T19:04:14.516Z,10.1
2023-01-18T19:09:13.148Z,10.1
2023-01-18T19:14:11.750Z,10.1
2023-01-18T19:19:10.529Z,10
2023-01-18T19:24:09.456Z,10.3
2023-01-18T19:29:08.239Z,10.6
2023-01-18T19:34:08.217Z,10.4
2023-01-18T19:39:09.201Z,10.3
2023-01-18T19:44:04.650Z,10.4
2023-01-18T19:49:03.539Z,10.7
2023-01-18T19:54:02.171Z,11
2023-01-18T19:59:01.261Z,11
2023-01-18T20:03:59.741Z,11
2023-01-18T20:08:57.544Z,10.9
2023-01-18T20:13:55.800Z,10.8
2023-01-18T20:18:54.102Z,10.6
2023-01-18T20:23:52.175Z,10.4
2023-01-18T20:28:50.722Z,10.4
2023-01-18T20:33:49.028Z,10.3
2023-01-18T20:38:47.213Z,10
2023-01-18T20:43:45.617Z,10.3
2023-01-18T20:48:44.231Z,10.5
2023-01-18T20:53:42.796Z,10.7
2023-01-18T20:58:41.285Z,10.6
2023-01-18T21:03:39.691Z,10.5
2023-01-18T21:08:38.133Z,10.6
2023-01-18T21:13:36.729Z,10.6
2023-01-18T21:18:35.051Z,10.4
2023-01-18T21:23:33.560Z,10.4
2023-01-18T21:28:32.075Z,10.5
2023-01-18T21:33:39.903Z,10.5
2023-01-18T21:38:36.955Z,10.5
2023-01-18T21:43:35.339Z,10.6
2023-01-18T21:48:33.951Z,10.7
2023-01-18T21:53:32.532Z,10.6
2023-01-18T21:58:31.249Z,10.5
2023-01-18T22:03:29.528Z,10.3
2023-01-18T22:08:27.886Z,10.4
2023-01-18T22:13:26.222Z,10.2
2023-01-18T22:18:24.394Z,10.1
2023-01-18T22:23:22.961Z,10.4
2023-01-18T22:28:21.611Z,10.6
2023-01-18T22:33:20.075Z,10.6
2023-01-18T22:38:18.650Z,10.5
2023-01-18T22:43:17.136Z,10.9
2023-01-18T22:48:15.436Z,11.2
2023-01-18T22:53:13.899Z,11.1
2023-01-18T22:58:12.492Z,11.3
2023-01-18T23:03:11.048Z,11.3
2023-01-18T23:08:09.479Z,11.2
2023-01-18T23:13:08.143Z,11.4
2023-01-18T23:18:06.528Z,11.4
2023-01-18T23:23:05.027Z,11.5
2023-01-18T23:28:03.208Z,11.4
2023-01-18T23:33:10.389Z,11.3
2023-01-18T23:38:07.553Z,11.5
2023-01-18T23:43:05.829Z,11.4
2023-01-18T23:48:04.397Z,11.5
2023-01-18T23:53:02.542Z,11.5
2023-01-18T23:58:01.254Z,11.4
